Terminal Aerodrome Forecast
Issued by NWS

Home | Current Version | Previous Version | Text Only | Print | Product List | Glossary Off
Versions: 1 2 3 4 5 6 7 8 9 10 11 12 13 14 15 16 17

000
FTUS43 KGRB 222300
TAFATW
TAF
KATW 222320Z 2300/2324 21006KT P6SM FEW120 BKN250
     FM230400 22011KT P6SM SCT015 BKN120 WS015/24035KT
      TEMPO 2304/2308 BKN015
     FM230800 23012KT P6SM OVC015 WS015/25040KT
     FM231400 23014G24KT P6SM SCT015 OVC080 PROB30 2317/2320 5SM -SN
      BKN015
     FM232000 23012G18KT 6SM -SN SCT012 OVC025
      TEMPO 2320/2323 4SM -SN BR BKN012
     FM232300 25008KT 6SM -FZDZSN BR OVC010=

USA.gov is the U.S. government's official web portal to all federal, state and local government web resources and services.